Time;durP1;ratioP1;P1;durP2;ratioP2;P2;SDS_P1;SDS_P2;PMS_P1;PMS_P2;Temp;Humidity;BMP_temperature;BMP_pressure;BME280_temperature;BME280_humidity;BME280_pressure;Samples;Min_cycle;Max_cycle;Signal;HPM_P1;HPM_P2
2021/01/21 00:01:04;;;;;;;;;;;22.20;82.90;;;;;;4993449;28;19932;-77
2021/01/21 00:03:33;;;;;;;;;;;22.20;82.10;;;;;;4993353;28;20028;-78
2021/01/21 00:06:00;;;;;;;;;;;22.40;81.90;;;;;;4992782;28;19910;-80
2021/01/21 00:08:28;;;;;;;;;;;22.60;82.50;;;;;;4993607;28;20356;-78
2021/01/21 00:10:54;;;;;;;;;;;22.70;82.80;;;;;;4986256;28;20397;-78
2021/01/21 00:13:21;;;;;;;;;;;22.80;82.10;;;;;;4989807;28;20403;-79
2021/01/21 00:15:47;;;;;;;;;;;22.90;81.00;;;;;;4993026;28;19914;-80
2021/01/21 00:18:14;;;;;;;;;;;23.00;80.00;;;;;;4993333;28;19933;-80
2021/01/21 00:20:41;;;;;;;;;;;23.10;79.60;;;;;;4992044;28;19910;-80
2021/01/21 00:23:07;;;;;;;;;;;23.10;79.70;;;;;;4984004;28;19924;-79
2021/01/21 00:25:34;;;;;;;;;;;23.10;78.20;;;;;;4983064;28;20004;-78
2021/01/21 00:28:01;;;;;;;;;;;23.10;77.30;;;;;;4984026;28;19914;-78
2021/01/21 00:30:27;;;;;;;;;;;23.30;77.80;;;;;;4986765;28;19941;-79
2021/01/21 00:32:55;;;;;;;;;;;23.50;76.90;;;;;;4983483;28;19917;-79
2021/01/21 00:35:22;;;;;;;;;;;23.70;76.50;;;;;;4982619;28;19953;-78
2021/01/21 00:37:48;;;;;;;;;;;23.80;76.30;;;;;;4986540;28;19914;-79
2021/01/21 00:40:15;;;;;;;;;;;23.80;76.70;;;;;;4982110;28;19984;-79
2021/01/21 00:42:42;;;;;;;;;;;23.90;75.20;;;;;;4983903;28;19937;-79
2021/01/21 00:45:09;;;;;;;;;;;24.00;75.50;;;;;;4982396;28;19918;-79
2021/01/21 00:47:35;;;;;;;;;;;24.00;74.80;;;;;;4984155;28;19922;-78
2021/01/21 00:50:02;;;;;;;;;;;23.90;74.30;;;;;;4984067;28;19940;-77
2021/01/21 00:52:29;;;;;;;;;;;24.00;75.00;;;;;;4984137;28;20010;-79
2021/01/21 00:54:56;;;;;;;;;;;24.40;75.00;;;;;;4984513;28;19979;-79
2021/01/21 00:57:22;;;;;;;;;;;24.60;73.60;;;;;;4986193;28;19980;-78
2021/01/21 00:59:49;;;;;;;;;;;24.80;71.50;;;;;;4986340;28;19914;-78
2021/01/21 01:02:15;;;;;;;;;;;24.60;72.50;;;;;;4985840;28;19910;-79
2021/01/21 01:04:42;;;;;;;;;;;24.80;72.50;;;;;;4989110;28;20368;-78
2021/01/21 01:07:09;;;;;;;;;;;25.10;70.70;;;;;;4988140;28;19909;-79
2021/01/21 01:09:35;;;;;;;;;;;25.20;70.60;;;;;;4987871;28;20311;-79
2021/01/21 01:12:02;;;;;;;;;;;25.40;70.50;;;;;;4984987;28;20332;-79
2021/01/21 01:14:29;;;;;;;;;;;25.60;69.30;;;;;;4986899;28;20273;-77
2021/01/21 01:16:55;;;;;;;;;;;25.80;68.60;;;;;;4970780;28;19930;-78
2021/01/21 01:19:22;;;;;;;;;;;26.30;68.40;;;;;;4989565;28;20019;-79
2021/01/21 01:21:49;;;;;;;;;;;26.80;66.20;;;;;;4986227;28;19933;-78
2021/01/21 01:24:15;;;;;;;;;;;27.00;65.70;;;;;;4981612;28;20299;-79
2021/01/21 01:26:45;;;;;;;;;;;26.80;65.30;;;;;;4993923;28;20434;-79
2021/01/21 01:29:12;;;;;;;;;;;26.70;65.90;;;;;;4985283;28;20379;-78
2021/01/21 01:31:38;;;;;;;;;;;26.90;66.10;;;;;;4979261;28;20501;-78
2021/01/21 01:34:05;;;;;;;;;;;27.00;64.90;;;;;;4970453;28;20320;-80
2021/01/21 01:36:31;;;;;;;;;;;26.80;64.50;;;;;;4979590;28;20383;-77
2021/01/21 01:38:58;;;;;;;;;;;27.00;65.00;;;;;;4996593;28;19928;-78
2021/01/21 01:41:28;;;;;;;;;;;27.20;64.60;;;;;;4990567;28;19914;-78
2021/01/21 01:43:55;;;;;;;;;;;27.70;64.30;;;;;;4989682;28;20000;-78
2021/01/21 01:46:26;;;;;;;;;;;27.60;64.80;;;;;;4972208;28;20302;-79
2021/01/21 01:48:55;;;;;;;;;;;27.80;63.50;;;;;;4996442;28;20280;-78
2021/01/21 01:51:22;;;;;;;;;;;27.90;62.60;;;;;;4992641;28;20269;-79
2021/01/21 01:53:49;;;;;;;;;;;27.30;64.00;;;;;;4995614;28;20024;-81
2021/01/21 01:56:15;;;;;;;;;;;27.20;65.10;;;;;;4994284;28;19914;-83
2021/01/21 01:58:42;;;;;;;;;;;27.10;65.40;;;;;;4994361;28;19910;-83
2021/01/21 02:01:09;;;;;;;;;;;26.90;64.60;;;;;;4992350;28;19910;-82
2021/01/21 02:03:36;;;;;;;;;;;26.60;66.20;;;;;;4993761;28;19921;-82
2021/01/21 02:06:04;;;;;;;;;;;26.40;66.10;;;;;;4994837;28;20000;-81
2021/01/21 02:08:30;;;;;;;;;;;26.10;67.00;;;;;;4994730;28;19917;-83
2021/01/21 02:11:03;;;;;;;;;;;25.90;68.60;;;;;;4993830;28;19984;-81
2021/01/21 02:13:29;;;;;;;;;;;25.60;69.70;;;;;;4996317;28;19972;-82
2021/01/21 02:16:11;;;;;;;;;;;25.50;69.40;;;;;;4995553;28;19918;-82
2021/01/21 02:18:52;;;;;;;;;;;25.60;69.40;;;;;;4994049;28;20364;-80
2021/01/21 02:21:24;;;;;;;;;;;25.50;69.30;;;;;;4993768;28;20008;-83
2021/01/21 02:24:09;;;;;;;;;;;25.50;70.90;;;;;;4995688;28;20479;-81
2021/01/21 02:26:51;;;;;;;;;;;25.50;70.10;;;;;;4995152;28;19921;-82
2021/01/21 02:29:18;;;;;;;;;;;25.30;70.60;;;;;;4995188;28;19968;-81
2021/01/21 02:32:03;;;;;;;;;;;25.40;70.90;;;;;;4991312;28;19972;-80
2021/01/21 02:34:32;;;;;;;;;;;25.40;69.90;;;;;;4994691;28;19910;-81
2021/01/21 02:37:01;;;;;;;;;;;25.30;70.10;;;;;;4985779;28;19918;-80
2021/01/21 02:39:29;;;;;;;;;;;25.20;70.10;;;;;;4989004;28;19922;-81
2021/01/21 02:41:56;;;;;;;;;;;25.30;69.80;;;;;;4985583;28;19914;-81
2021/01/21 02:44:27;;;;;;;;;;;25.40;70.40;;;;;;4987662;28;19932;-80
2021/01/21 02:46:54;;;;;;;;;;;25.30;69.00;;;;;;4993122;28;19913;-82
2021/01/21 02:49:21;;;;;;;;;;;25.00;69.80;;;;;;4994229;28;20740;-80
2021/01/21 02:51:53;;;;;;;;;;;24.90;69.80;;;;;;4995313;28;19952;-80
2021/01/21 02:54:20;;;;;;;;;;;24.70;70.50;;;;;;4994813;28;20654;-81
2021/01/21 02:56:48;;;;;;;;;;;24.80;70.60;;;;;;4994274;28;19918;-80
2021/01/21 02:59:15;;;;;;;;;;;24.70;70.40;;;;;;5013430;28;19913;-80
2021/01/21 03:01:45;;;;;;;;;;;24.70;70.30;;;;;;4995914;28;19994;-81
2021/01/21 03:04:13;;;;;;;;;;;24.80;69.90;;;;;;4993737;28;19914;-81
2021/01/21 03:06:41;;;;;;;;;;;24.80;70.10;;;;;;4994492;28;19924;-80
2021/01/21 03:09:07;;;;;;;;;;;24.60;70.40;;;;;;5007327;28;19990;-81
2021/01/21 03:11:34;;;;;;;;;;;24.60;69.70;;;;;;5010733;28;19996;-81
2021/01/21 03:14:01;;;;;;;;;;;24.80;70.00;;;;;;4995249;28;19958;-81
2021/01/21 03:16:27;;;;;;;;;;;24.70;69.10;;;;;;4995115;28;20046;-82
2021/01/21 03:18:54;;;;;;;;;;;24.70;68.90;;;;;;4992020;28;19914;-81
2021/01/21 03:21:20;;;;;;;;;;;24.70;69.40;;;;;;4982996;28;20315;-81
2021/01/21 03:23:48;;;;;;;;;;;24.80;70.30;;;;;;4995744;28;19913;-80
2021/01/21 03:26:14;;;;;;;;;;;24.90;69.20;;;;;;4995929;28;20352;-81
2021/01/21 03:28:41;;;;;;;;;;;24.80;70.20;;;;;;4995834;28;19920;-79
2021/01/21 03:31:08;;;;;;;;;;;24.80;69.80;;;;;;4994028;28;19957;-79
2021/01/21 03:33:34;;;;;;;;;;;24.80;70.20;;;;;;4995931;28;19980;-81
2021/01/21 03:36:01;;;;;;;;;;;24.80;70.60;;;;;;4996950;28;19922;-80
2021/01/21 03:38:28;;;;;;;;;;;24.90;70.00;;;;;;4998874;28;19910;-81
2021/01/21 03:40:54;;;;;;;;;;;24.80;70.90;;;;;;5004176;28;20383;-82
2021/01/21 03:43:21;;;;;;;;;;;24.90;71.60;;;;;;5007950;28;19993;-80
2021/01/21 03:45:48;;;;;;;;;;;24.90;70.80;;;;;;4997608;28;19922;-79
2021/01/21 03:48:14;;;;;;;;;;;24.80;70.30;;;;;;4999612;28;20379;-79
2021/01/21 03:50:43;;;;;;;;;;;24.80;70.00;;;;;;4993283;28;19921;-87
2021/01/21 03:53:10;;;;;;;;;;;24.60;70.90;;;;;;4994420;28;19922;-84
2021/01/21 03:55:38;;;;;;;;;;;24.70;70.70;;;;;;4976332;28;19941;-77
2021/01/21 03:58:04;;;;;;;;;;;24.70;70.00;;;;;;4975626;28;19913;-79
2021/01/21 04:00:31;;;;;;;;;;;24.60;69.50;;;;;;4993278;28;19941;-81
2021/01/21 04:02:58;;;;;;;;;;;24.60;69.90;;;;;;4991238;28;19914;-80
2021/01/21 04:05:24;;;;;;;;;;;24.70;69.40;;;;;;4993507;28;19960;-81
2021/01/21 04:07:51;;;;;;;;;;;24.70;70.10;;;;;;4976478;28;20291;-81
2021/01/21 04:10:17;;;;;;;;;;;24.70;69.30;;;;;;4992635;28;20415;-79
2021/01/21 04:12:44;;;;;;;;;;;24.80;70.80;;;;;;4992449;28;19914;-79
2021/01/21 04:15:11;;;;;;;;;;;24.80;70.20;;;;;;4990523;28;19936;-81
2021/01/21 04:17:38;;;;;;;;;;;24.70;70.40;;;;;;4993707;28;19917;-81
2021/01/21 04:20:06;;;;;;;;;;;24.60;70.10;;;;;;4989667;28;19914;-81
2021/01/21 04:22:33;;;;;;;;;;;24.50;70.40;;;;;;4990060;28;19964;-80
2021/01/21 04:24:59;;;;;;;;;;;24.50;69.70;;;;;;4992839;28;19913;-80
2021/01/21 04:27:26;;;;;;;;;;;24.40;70.00;;;;;;4992986;28;20016;-80
2021/01/21 04:29:53;;;;;;;;;;;24.50;70.80;;;;;;4992925;28;19914;-81
2021/01/21 04:32:19;;;;;;;;;;;24.50;70.50;;;;;;4993410;28;19921;-81
2021/01/21 04:34:46;;;;;;;;;;;24.50;70.60;;;;;;4993065;28;20121;-82
2021/01/21 04:37:13;;;;;;;;;;;24.60;70.20;;;;;;4993086;28;19914;-81
2021/01/21 04:39:40;;;;;;;;;;;24.50;71.30;;;;;;4989747;28;19914;-81
2021/01/21 04:42:07;;;;;;;;;;;24.50;71.30;;;;;;4973576;28;19953;-80
2021/01/21 04:44:33;;;;;;;;;;;24.50;71.40;;;;;;4974666;28;19996;-82
2021/01/21 04:47:00;;;;;;;;;;;24.50;72.00;;;;;;4991533;28;19937;-80
2021/01/21 04:49:32;;;;;;;;;;;24.50;71.30;;;;;;4994310;28;19914;-80
2021/01/21 04:52:00;;;;;;;;;;;24.30;71.70;;;;;;4992768;28;19925;-80
2021/01/21 04:54:32;;;;;;;;;;;24.50;72.80;;;;;;4993191;28;19941;-80
2021/01/21 04:57:03;;;;;;;;;;;24.60;71.20;;;;;;4984081;28;19936;-83
2021/01/21 04:59:32;;;;;;;;;;;24.60;71.20;;;;;;4993113;28;20424;-82
2021/01/21 05:01:59;;;;;;;;;;;24.40;72.10;;;;;;4973828;28;19913;-81
2021/01/21 05:04:26;;;;;;;;;;;24.40;71.90;;;;;;4989466;28;20004;-80
2021/01/21 05:06:55;;;;;;;;;;;24.50;71.90;;;;;;4979931;28;19929;-80
2021/01/21 05:09:22;;;;;;;;;;;24.50;72.00;;;;;;4991587;28;19918;-79
2021/01/21 05:11:49;;;;;;;;;;;24.30;72.40;;;;;;4986856;28;19922;-80
2021/01/21 05:14:16;;;;;;;;;;;24.10;72.80;;;;;;4993363;28;19972;-80
2021/01/21 05:16:45;;;;;;;;;;;24.10;73.10;;;;;;4992699;28;20008;-81
2021/01/21 05:19:15;;;;;;;;;;;24.10;73.10;;;;;;4993012;28;20309;-80
2021/01/21 05:21:42;;;;;;;;;;;24.10;73.80;;;;;;4972572;28;19969;-79
2021/01/21 05:24:10;;;;;;;;;;;24.30;73.30;;;;;;4992705;28;19914;-78
2021/01/21 05:26:39;;;;;;;;;;;24.10;74.30;;;;;;4992001;28;19917;-80
2021/01/21 05:29:06;;;;;;;;;;;24.10;73.80;;;;;;4986904;28;20319;-78
2021/01/21 05:31:33;;;;;;;;;;;24.10;74.30;;;;;;4984199;28;19922;-82
2021/01/21 05:34:01;;;;;;;;;;;24.20;72.50;;;;;;4990615;28;19964;-80
2021/01/21 05:36:28;;;;;;;;;;;24.10;73.00;;;;;;4986572;28;20032;-79
2021/01/21 05:38:55;;;;;;;;;;;24.10;73.60;;;;;;4992762;28;20016;-81
2021/01/21 05:41:23;;;;;;;;;;;24.10;74.50;;;;;;4990283;28;19910;-81
2021/01/21 05:43:50;;;;;;;;;;;24.20;74.60;;;;;;4988318;28;19956;-79
2021/01/21 05:46:21;;;;;;;;;;;24.20;73.90;;;;;;4988932;28;19918;-82
2021/01/21 05:48:48;;;;;;;;;;;24.10;75.00;;;;;;4991900;28;19960;-82
2021/01/21 05:51:15;;;;;;;;;;;24.10;75.30;;;;;;4992990;28;19917;-81
2021/01/21 05:53:41;;;;;;;;;;;23.90;74.10;;;;;;4986787;28;19921;-80
2021/01/21 05:56:11;;;;;;;;;;;23.90;75.30;;;;;;4994271;28;19942;-79
2021/01/21 05:58:42;;;;;;;;;;;23.90;76.10;;;;;;4989390;28;19919;-80
2021/01/21 06:01:10;;;;;;;;;;;23.90;76.10;;;;;;4993911;28;20395;-80
2021/01/21 06:03:37;;;;;;;;;;;23.80;75.70;;;;;;4990436;28;20399;-79
2021/01/21 06:06:08;;;;;;;;;;;23.80;75.40;;;;;;4993838;28;20368;-82
2021/01/21 06:08:41;;;;;;;;;;;23.80;76.50;;;;;;4990832;28;19932;-78
2021/01/21 06:11:08;;;;;;;;;;;23.80;76.50;;;;;;4992832;28;19929;-80
2021/01/21 06:13:40;;;;;;;;;;;23.80;76.40;;;;;;4991731;28;19920;-81
2021/01/21 06:16:08;;;;;;;;;;;23.80;76.90;;;;;;4990560;28;19918;-79
2021/01/21 06:18:34;;;;;;;;;;;23.80;77.00;;;;;;4988722;28;20747;-82
2021/01/21 06:21:01;;;;;;;;;;;23.80;77.60;;;;;;4993098;28;20027;-78
2021/01/21 06:23:31;;;;;;;;;;;23.80;77.50;;;;;;4990836;28;19920;-81
2021/01/21 06:25:58;;;;;;;;;;;23.80;78.10;;;;;;4992224;28;19949;-81
2021/01/21 06:28:30;;;;;;;;;;;23.70;77.30;;;;;;4991322;28;19944;-82
2021/01/21 06:30:57;;;;;;;;;;;23.70;76.70;;;;;;4989012;28;19926;-81
2021/01/21 06:33:29;;;;;;;;;;;23.70;77.40;;;;;;4988984;28;19921;-81
2021/01/21 06:36:02;;;;;;;;;;;23.80;76.70;;;;;;4980923;28;19924;-81
2021/01/21 06:38:39;;;;;;;;;;;23.90;76.90;;;;;;4985420;28;19914;-77
2021/01/21 06:41:16;;;;;;;;;;;23.90;76.90;;;;;;4992298;28;19910;-77
2021/01/21 06:43:43;;;;;;;;;;;23.90;75.70;;;;;;4990836;28;19933;-79
2021/01/21 06:46:12;;;;;;;;;;;23.80;76.20;;;;;;4986327;28;19914;-80
2021/01/21 06:48:39;;;;;;;;;;;23.80;75.80;;;;;;4987349;28;19980;-76
2021/01/21 06:51:07;;;;;;;;;;;23.70;75.80;;;;;;4991460;28;20175;-81
2021/01/21 06:53:34;;;;;;;;;;;23.70;77.10;;;;;;4991837;28;19929;-78
2021/01/21 06:56:01;;;;;;;;;;;23.70;77.20;;;;;;4993719;28;19957;-80
2021/01/21 06:58:45;;;;;;;;;;;23.70;76.90;;;;;;4993150;28;19910;-81
2021/01/21 07:01:31;;;;;;;;;;;23.60;77.40;;;;;;4979759;28;19918;-80
2021/01/21 07:04:21;;;;;;;;;;;23.40;78.70;;;;;;4990664;28;19914;-77
2021/01/21 07:06:50;;;;;;;;;;;23.30;77.70;;;;;;4991407;28;19914;-80
2021/01/21 07:09:25;;;;;;;;;;;23.30;78.50;;;;;;4990126;28;20479;-79
2021/01/21 07:11:56;;;;;;;;;;;23.40;78.90;;;;;;4983812;28;19936;-80
2021/01/21 07:14:25;;;;;;;;;;;23.40;79.30;;;;;;4991716;28;19920;-81
2021/01/21 07:17:00;;;;;;;;;;;23.40;79.30;;;;;;4992630;28;19918;-88
2021/01/21 07:19:52;;;;;;;;;;;23.40;79.20;;;;;;4989453;28;19937;-84
2021/01/21 07:22:20;;;;;;;;;;;23.30;79.80;;;;;;4986418;28;20276;-79
2021/01/21 07:24:56;;;;;;;;;;;23.20;80.70;;;;;;4992534;28;19933;-81
2021/01/21 07:27:27;;;;;;;;;;;23.10;81.30;;;;;;4991330;28;19920;-82
2021/01/21 07:30:12;;;;;;;;;;;23.20;80.60;;;;;;4992499;28;19914;-82
2021/01/21 07:32:39;;;;;;;;;;;23.20;80.20;;;;;;4976160;28;19929;-84
2021/01/21 07:35:06;;;;;;;;;;;23.10;81.10;;;;;;4991720;28;20387;-79
2021/01/21 07:37:41;;;;;;;;;;;23.00;81.30;;;;;;4988653;28;20000;-80
2021/01/21 07:40:10;;;;;;;;;;;23.00;81.60;;;;;;4981423;28;19980;-81
2021/01/21 07:42:37;;;;;;;;;;;23.00;82.30;;;;;;4990214;28;20047;-80
2021/01/21 07:45:03;;;;;;;;;;;23.00;82.90;;;;;;4989074;28;19914;-79
2021/01/21 07:47:31;;;;;;;;;;;23.00;83.00;;;;;;4991965;28;19914;-78
2021/01/21 07:50:16;;;;;;;;;;;22.90;84.40;;;;;;4997569;28;19918;-82
2021/01/21 07:52:43;;;;;;;;;;;22.70;85.40;;;;;;5012440;28;19930;-80
2021/01/21 07:55:10;;;;;;;;;;;22.70;86.30;;;;;;5011954;28;19928;-84
2021/01/21 07:57:37;;;;;;;;;;;22.70;86.60;;;;;;5014033;28;19917;-87
2021/01/21 08:00:05;;;;;;;;;;;22.60;87.40;;;;;;4994566;28;19917;-80
2021/01/21 08:02:41;;;;;;;;;;;22.60;88.00;;;;;;4990575;28;19954;-79
2021/01/21 08:05:09;;;;;;;;;;;22.60;90.50;;;;;;5000178;28;19977;-80
2021/01/21 08:07:45;;;;;;;;;;;22.40;90.40;;;;;;5013314;28;19909;-80
2021/01/21 08:10:12;;;;;;;;;;;22.30;90.30;;;;;;4992820;28;19925;-80
2021/01/21 08:12:39;;;;;;;;;;;22.20;90.70;;;;;;5012718;28;19969;-82
2021/01/21 08:15:06;;;;;;;;;;;22.30;90.80;;;;;;5014858;28;19934;-81
2021/01/21 08:17:32;;;;;;;;;;;22.20;90.80;;;;;;5013302;28;19910;-82
2021/01/21 08:19:59;;;;;;;;;;;22.20;90.90;;;;;;4995292;28;19917;-80
2021/01/21 08:22:26;;;;;;;;;;;22.20;90.90;;;;;;4965593;28;19956;-79
2021/01/21 08:25:00;;;;;;;;;;;22.20;91.10;;;;;;4993065;28;19914;-81
2021/01/21 08:27:47;;;;;;;;;;;22.20;90.80;;;;;;4991002;28;19917;-81
2021/01/21 08:30:15;;;;;;;;;;;22.20;90.50;;;;;;4992971;28;20388;-79
2021/01/21 08:32:45;;;;;;;;;;;22.20;91.00;;;;;;4993469;28;19914;-79
2021/01/21 08:35:14;;;;;;;;;;;22.10;91.10;;;;;;4992837;28;19957;-80
2021/01/21 08:37:41;;;;;;;;;;;22.10;91.10;;;;;;4992939;28;20272;-80
2021/01/21 08:40:11;;;;;;;;;;;22.10;91.40;;;;;;4992343;28;19910;-80
2021/01/21 08:42:41;;;;;;;;;;;22.10;91.20;;;;;;4992343;28;20213;-80
2021/01/21 08:45:08;;;;;;;;;;;22.10;91.30;;;;;;4972778;28;20273;-80
2021/01/21 08:47:50;;;;;;;;;;;22.00;91.20;;;;;;4992700;28;20251;-80
2021/01/21 08:50:18;;;;;;;;;;;22.00;91.40;;;;;;4993116;28;20328;-80
2021/01/21 08:53:02;;;;;;;;;;;22.00;91.30;;;;;;4993389;28;20368;-81
2021/01/21 08:55:40;;;;;;;;;;;22.00;91.60;;;;;;4994214;28;19961;-80
2021/01/21 08:58:07;;;;;;;;;;;22.00;91.40;;;;;;4993069;28;19922;-80
2021/01/21 09:00:35;;;;;;;;;;;21.90;91.60;;;;;;4993426;28;19953;-80
2021/01/21 09:03:02;;;;;;;;;;;21.90;91.50;;;;;;4993791;28;19956;-80
2021/01/21 09:05:29;;;;;;;;;;;21.90;91.80;;;;;;4993488;28;19909;-81
2021/01/21 09:08:05;;;;;;;;;;;21.90;91.70;;;;;;4993142;28;19916;-82
2021/01/21 09:10:43;;;;;;;;;;;21.80;91.80;;;;;;4992773;28;19922;-81
2021/01/21 09:13:11;;;;;;;;;;;21.80;91.90;;;;;;4992927;28;19968;-81
2021/01/21 09:15:52;;;;;;;;;;;21.80;92.20;;;;;;4993141;28;19909;-80
2021/01/21 09:18:20;;;;;;;;;;;21.80;92.30;;;;;;4998784;28;19910;-80
2021/01/21 09:20:47;;;;;;;;;;;21.70;92.50;;;;;;5015277;28;19917;-80
2021/01/21 09:23:15;;;;;;;;;;;21.70;92.70;;;;;;4995085;28;19910;-80
2021/01/21 09:25:41;;;;;;;;;;;21.80;92.80;;;;;;4996613;28;19917;-81
2021/01/21 09:28:15;;;;;;;;;;;21.70;92.90;;;;;;4996801;28;19914;-80
2021/01/21 09:30:42;;;;;;;;;;;21.70;93.10;;;;;;4996836;28;19913;-80
2021/01/21 09:33:09;;;;;;;;;;;21.70;93.10;;;;;;4997011;28;20060;-81
2021/01/21 09:35:37;;;;;;;;;;;21.70;93.30;;;;;;4997338;28;19910;-81
2021/01/21 09:38:04;;;;;;;;;;;21.70;93.30;;;;;;4996557;28;19929;-80
2021/01/21 09:40:33;;;;;;;;;;;21.70;93.30;;;;;;4995785;28;19964;-83
2021/01/21 09:43:01;;;;;;;;;;;21.70;93.30;;;;;;4977321;28;19918;-78
2021/01/21 09:45:28;;;;;;;;;;;21.70;93.40;;;;;;4976834;28;19910;-80
2021/01/21 09:47:55;;;;;;;;;;;21.70;93.40;;;;;;4977029;28;19957;-81
2021/01/21 09:50:23;;;;;;;;;;;21.70;93.70;;;;;;4976619;28;20333;-80
2021/01/21 09:52:50;;;;;;;;;;;21.70;93.80;;;;;;4976926;28;19929;-80
2021/01/21 09:55:17;;;;;;;;;;;21.70;93.80;;;;;;4981926;28;19925;-81
2021/01/21 09:57:44;;;;;;;;;;;21.70;94.00;;;;;;4996678;28;19910;-79
2021/01/21 10:00:11;;;;;;;;;;;21.60;94.00;;;;;;4996341;28;20433;-80
2021/01/21 10:02:38;;;;;;;;;;;21.60;94.20;;;;;;4996505;28;20004;-80
2021/01/21 10:05:05;;;;;;;;;;;21.60;94.40;;;;;;4996093;28;19917;-78
2021/01/21 10:07:32;;;;;;;;;;;21.60;94.60;;;;;;4996460;28;19979;-81
2021/01/21 10:09:59;;;;;;;;;;;21.60;94.70;;;;;;4995330;28;19910;-80
2021/01/21 10:12:28;;;;;;;;;;;21.60;94.90;;;;;;4995997;28;19983;-80
2021/01/21 10:14:58;;;;;;;;;;;21.60;94.80;;;;;;4996043;28;19917;-81
2021/01/21 10:17:25;;;;;;;;;;;21.60;94.90;;;;;;4996055;28;20320;-80
2021/01/21 10:19:52;;;;;;;;;;;21.50;94.90;;;;;;4996064;28;19910;-78
2021/01/21 10:22:18;;;;;;;;;;;21.50;95.00;;;;;;4995598;28;19909;-80
2021/01/21 10:24:46;;;;;;;;;;;21.50;95.10;;;;;;4995565;28;19917;-81
2021/01/21 10:27:13;;;;;;;;;;;21.50;95.30;;;;;;4995581;28;19910;-80
2021/01/21 10:29:40;;;;;;;;;;;21.50;95.10;;;;;;4978629;28;20392;-79
2021/01/21 10:32:06;;;;;;;;;;;21.50;95.20;;;;;;4995197;28;19921;-81
2021/01/21 10:34:33;;;;;;;;;;;21.50;95.10;;;;;;4995558;28;20265;-78
2021/01/21 10:37:00;;;;;;;;;;;21.50;95.20;;;;;;4996195;28;19957;-81
2021/01/21 10:39:26;;;;;;;;;;;21.50;95.20;;;;;;4980202;28;19993;-82
2021/01/21 10:41:53;;;;;;;;;;;21.50;95.30;;;;;;4976584;28;19910;-83
2021/01/21 10:44:20;;;;;;;;;;;21.50;95.40;;;;;;4975871;28;19911;-80
2021/01/21 10:46:46;;;;;;;;;;;21.40;95.30;;;;;;4975172;28;20022;-79
2021/01/21 10:49:14;;;;;;;;;;;21.40;95.40;;;;;;4977077;28;20440;-79
2021/01/21 10:51:41;;;;;;;;;;;21.40;95.50;;;;;;4993705;28;20460;-77
2021/01/21 10:54:07;;;;;;;;;;;21.40;95.60;;;;;;4991273;28;19953;-81
2021/01/21 10:56:34;;;;;;;;;;;21.40;95.70;;;;;;4988813;28;19944;-81
2021/01/21 10:59:05;;;;;;;;;;;21.40;95.80;;;;;;4979285;28;19914;-79
2021/01/21 11:01:32;;;;;;;;;;;21.40;96.00;;;;;;4978953;28;19913;-81
2021/01/21 11:03:59;;;;;;;;;;;21.40;96.10;;;;;;4979304;28;20546;-81
2021/01/21 11:06:26;;;;;;;;;;;21.30;96.10;;;;;;4977892;28;19968;-80
2021/01/21 11:08:52;;;;;;;;;;;21.40;96.30;;;;;;4991494;28;19914;-78
2021/01/21 11:11:19;;;;;;;;;;;21.40;96.30;;;;;;4983000;28;20028;-78
2021/01/21 11:13:46;;;;;;;;;;;21.40;96.40;;;;;;4983048;28;20038;-79
2021/01/21 11:16:13;;;;;;;;;;;21.30;96.40;;;;;;4979795;28;19920;-78
2021/01/21 11:18:40;;;;;;;;;;;21.30;96.40;;;;;;4980262;28;20349;-79
2021/01/21 11:21:06;;;;;;;;;;;21.30;96.50;;;;;;4969728;28;19918;-79
2021/01/21 11:23:33;;;;;;;;;;;21.30;96.50;;;;;;4979666;28;20380;-77
2021/01/21 11:26:00;;;;;;;;;;;21.40;96.60;;;;;;4995081;28;19918;-80
2021/01/21 11:28:27;;;;;;;;;;;21.30;96.70;;;;;;4995667;28;19921;-81
2021/01/21 11:30:54;;;;;;;;;;;21.30;96.80;;;;;;4996646;28;20372;-79
2021/01/21 11:33:21;;;;;;;;;;;21.30;96.90;;;;;;4996034;28;19918;-82
2021/01/21 11:35:48;;;;;;;;;;;21.30;97.00;;;;;;5007182;28;20276;-81
2021/01/21 11:38:14;;;;;;;;;;;21.20;97.10;;;;;;4996495;28;19914;-83
2021/01/21 11:40:41;;;;;;;;;;;21.30;97.20;;;;;;4976571;28;19936;-82
2021/01/21 11:43:09;;;;;;;;;;;21.30;97.30;;;;;;4986827;28;20268;-82
2021/01/21 11:45:36;;;;;;;;;;;21.20;97.30;;;;;;4990937;28;19914;-80
2021/01/21 11:48:04;;;;;;;;;;;21.20;97.30;;;;;;4994013;28;19910;-80
2021/01/21 11:50:31;;;;;;;;;;;21.20;97.30;;;;;;4995915;28;19918;-81
2021/01/21 11:52:57;;;;;;;;;;;21.20;97.40;;;;;;4992635;28;19922;-81
2021/01/21 11:55:24;;;;;;;;;;;21.20;97.40;;;;;;4984970;28;19997;-81
2021/01/21 11:57:51;;;;;;;;;;;21.20;97.50;;;;;;4995977;28;19914;-80
2021/01/21 12:00:18;;;;;;;;;;;21.20;97.50;;;;;;4990559;28;19917;-81
2021/01/21 12:02:44;;;;;;;;;;;21.20;97.60;;;;;;4995668;28;19921;-81
2021/01/21 12:05:11;;;;;;;;;;;21.20;97.80;;;;;;4994547;28;19948;-80
2021/01/21 12:07:39;;;;;;;;;;;21.10;97.80;;;;;;4998353;28;19920;-80
2021/01/21 12:10:06;;;;;;;;;;;21.10;97.90;;;;;;5005671;28;19910;-81
2021/01/21 12:12:34;;;;;;;;;;;21.10;98.00;;;;;;5016522;28;19924;-79
2021/01/21 12:15:07;;;;;;;;;;;21.10;98.10;;;;;;5012940;28;20345;-80
2021/01/21 12:17:33;;;;;;;;;;;21.10;98.20;;;;;;4998131;28;19914;-80
2021/01/21 12:20:00;;;;;;;;;;;21.10;98.30;;;;;;4992525;28;19910;-80
2021/01/21 12:22:26;;;;;;;;;;;21.10;98.40;;;;;;4992712;28;19924;-80
2021/01/21 12:24:53;;;;;;;;;;;21.10;98.50;;;;;;4988853;28;20288;-80
2021/01/21 12:27:20;;;;;;;;;;;21.10;98.60;;;;;;4975171;28;19909;-81
2021/01/21 12:29:49;;;;;;;;;;;21.00;98.60;;;;;;4990818;28;20136;-81
2021/01/21 12:32:16;;;;;;;;;;;21.00;98.70;;;;;;4985101;28;19930;-81
2021/01/21 12:34:43;;;;;;;;;;;21.00;98.90;;;;;;4982958;28;19957;-81
2021/01/21 12:37:10;;;;;;;;;;;21.00;98.90;;;;;;4994931;28;19928;-79
2021/01/21 12:39:37;;;;;;;;;;;21.00;99.00;;;;;;4991109;28;19953;-81
2021/01/21 12:42:03;;;;;;;;;;;21.00;99.10;;;;;;4992099;28;19941;-81
2021/01/21 12:44:30;;;;;;;;;;;20.90;99.10;;;;;;4992877;28;19910;-80
2021/01/21 12:46:57;;;;;;;;;;;20.90;99.10;;;;;;4993268;28;19996;-82
2021/01/21 12:49:23;;;;;;;;;;;20.90;99.20;;;;;;4993541;28;20230;-81
2021/01/21 12:51:50;;;;;;;;;;;20.90;99.30;;;;;;4992949;28;20398;-80
2021/01/21 12:54:17;;;;;;;;;;;20.90;99.30;;;;;;4992774;28;20391;-81
2021/01/21 12:56:43;;;;;;;;;;;20.90;99.30;;;;;;4993428;28;20000;-81
2021/01/21 12:59:10;;;;;;;;;;;20.90;99.40;;;;;;4995194;28;19952;-81
2021/01/21 13:01:38;;;;;;;;;;;20.90;99.40;;;;;;4997393;28;20316;-81
2021/01/21 13:04:04;;;;;;;;;;;20.90;99.40;;;;;;4996215;28;19921;-82
2021/01/21 13:06:31;;;;;;;;;;;20.80;99.40;;;;;;4996538;28;19914;-81
2021/01/21 13:08:58;;;;;;;;;;;20.90;99.50;;;;;;4979157;28;19910;-82
2021/01/21 13:11:24;;;;;;;;;;;20.80;99.50;;;;;;4996551;28;19925;-81
2021/01/21 13:13:51;;;;;;;;;;;20.80;99.50;;;;;;4997446;28;20012;-81
2021/01/21 13:16:18;;;;;;;;;;;20.80;99.50;;;;;;4997144;28;19910;-80
2021/01/21 13:18:48;;;;;;;;;;;20.80;99.50;;;;;;4997568;28;19910;-81
2021/01/21 13:21:15;;;;;;;;;;;20.80;99.50;;;;;;4996044;28;20349;-80
2021/01/21 13:23:42;;;;;;;;;;;20.70;99.50;;;;;;4985280;28;19910;-79
2021/01/21 13:26:08;;;;;;;;;;;20.80;99.50;;;;;;4977230;28;20454;-80
2021/01/21 13:28:35;;;;;;;;;;;20.70;99.40;;;;;;4977145;28;19914;-81
2021/01/21 13:31:01;;;;;;;;;;;20.80;99.50;;;;;;4977014;28;20273;-80
2021/01/21 13:33:28;;;;;;;;;;;20.80;99.50;;;;;;4977409;28;20387;-81
2021/01/21 13:35:55;;;;;;;;;;;20.80;99.50;;;;;;4978011;28;19957;-80
2021/01/21 13:38:23;;;;;;;;;;;20.80;99.50;;;;;;4996308;28;19956;-80
2021/01/21 13:40:50;;;;;;;;;;;20.70;99.50;;;;;;4996380;28;19941;-81
2021/01/21 13:43:17;;;;;;;;;;;20.70;99.50;;;;;;4996598;28;19914;-81
2021/01/21 13:45:43;;;;;;;;;;;20.70;99.50;;;;;;4996690;28;20005;-81
2021/01/21 13:48:10;;;;;;;;;;;20.70;99.60;;;;;;4996850;28;19910;-82
2021/01/21 13:50:37;;;;;;;;;;;20.70;99.60;;;;;;4996002;28;19925;-80
2021/01/21 13:53:03;;;;;;;;;;;20.70;99.60;;;;;;4994949;28;19922;-81
2021/01/21 13:55:30;;;;;;;;;;;20.70;99.60;;;;;;4996754;28;19965;-81
2021/01/21 13:57:57;;;;;;;;;;;20.70;99.70;;;;;;4996596;28;19914;-80
2021/01/21 14:00:24;;;;;;;;;;;20.70;99.60;;;;;;4996069;28;19917;-80
2021/01/21 14:02:51;;;;;;;;;;;20.70;99.80;;;;;;4996336;28;20041;-80
2021/01/21 14:05:17;;;;;;;;;;;20.70;99.70;;;;;;4996580;28;19936;-81
2021/01/21 14:07:44;;;;;;;;;;;20.70;99.70;;;;;;4995912;28;19917;-81
2021/01/21 14:10:11;;;;;;;;;;;20.70;99.60;;;;;;4995427;28;19910;-81
2021/01/21 14:12:38;;;;;;;;;;;20.70;99.60;;;;;;4995956;28;19922;-81
2021/01/21 14:15:06;;;;;;;;;;;20.70;99.60;;;;;;4996360;28;20507;-81
2021/01/21 14:17:32;;;;;;;;;;;20.70;99.60;;;;;;4996369;28;19910;-81
2021/01/21 14:19:59;;;;;;;;;;;20.70;99.90;;;;;;4996422;28;19954;-81
2021/01/21 14:22:25;;;;;;;;;;;20.70;99.80;;;;;;4996589;28;20458;-80